createdAt,value
2017-10-14T00:02:19.035Z,80.40
2017-10-14T00:04:46.602Z,80.10
2017-10-14T00:07:14.929Z,80.30
2017-10-14T00:09:42.862Z,80.20
2017-10-14T00:12:10.400Z,80.30
2017-10-14T00:14:38.722Z,80.30
2017-10-14T00:17:06.709Z,80.20
2017-10-14T00:19:34.258Z,80.30
2017-10-14T00:22:01.851Z,80.00
2017-10-14T00:24:29.893Z,80.30
2017-10-14T00:26:57.472Z,80.30
2017-10-14T00:29:25.013Z,80.20
2017-10-14T00:31:52.868Z,80.20
2017-10-14T00:34:20.434Z,80.20
2017-10-14T00:36:48.057Z,80.10
2017-10-14T00:39:15.661Z,80.10
2017-10-14T00:41:43.199Z,80.40
2017-10-14T00:44:10.747Z,80.40
2017-10-14T00:46:38.356Z,80.40
2017-10-14T00:49:05.925Z,80.40
2017-10-14T00:51:33.475Z,80.40
2017-10-14T00:54:01.327Z,80.10
2017-10-14T00:56:28.881Z,80.20
2017-10-14T00:58:56.423Z,80.20
2017-10-14T01:01:24.416Z,80.20
2017-10-14T01:03:51.953Z,80.10
2017-10-14T01:06:19.497Z,80.10
2017-10-14T01:08:47.091Z,80.20
2017-10-14T01:11:14.638Z,79.90
2017-10-14T01:13:42.197Z,80.20
2017-10-14T01:16:10.054Z,80.10
2017-10-14T01:18:37.599Z,80.00
2017-10-14T01:21:05.157Z,80.30
2017-10-14T01:23:33.170Z,80.20
2017-10-14T01:26:01.521Z,80.20
2017-10-14T01:28:29.071Z,80.10
2017-10-14T01:30:56.974Z,80.30
2017-10-14T01:33:24.535Z,80.50
2017-10-14T01:35:52.126Z,80.50
2017-10-14T01:38:20.492Z,80.20
2017-10-14T01:40:48.071Z,80.10
2017-10-14T01:43:16.382Z,80.40
2017-10-14T01:45:44.038Z,80.40
2017-10-14T01:48:11.706Z,80.00
2017-10-14T01:50:39.265Z,80.00
2017-10-14T01:53:07.367Z,79.90
2017-10-14T01:55:35.666Z,80.20
2017-10-14T01:58:03.216Z,80.10
2017-10-14T02:00:30.863Z,80.00
2017-10-14T02:02:58.400Z,80.40
2017-10-14T02:05:25.966Z,80.40
2017-10-14T02:07:53.598Z,80.20
2017-10-14T02:10:21.138Z,80.40
2017-10-14T02:12:48.698Z,80.20
2017-10-14T02:15:17.087Z,80.40
2017-10-14T02:17:45.401Z,80.40
2017-10-14T02:20:12.962Z,80.40
2017-10-14T02:22:40.558Z,80.20
2017-10-14T02:25:08.115Z,80.40
2017-10-14T02:27:35.666Z,80.50
2017-10-14T02:30:03.271Z,80.70
2017-10-14T02:32:30.819Z,80.50
2017-10-14T02:34:59.142Z,80.60
2017-10-14T02:37:26.757Z,80.60
2017-10-14T02:39:55.077Z,80.70
2017-10-14T02:42:22.621Z,80.70
2017-10-14T02:44:50.225Z,80.40
2017-10-14T02:47:17.805Z,80.60
2017-10-14T02:49:46.154Z,80.70
2017-10-14T02:52:13.756Z,80.60
2017-10-14T02:54:41.332Z,81.30
2017-10-14T02:57:08.891Z,80.80
2017-10-14T02:59:36.750Z,80.60
2017-10-14T03:02:04.288Z,80.80
2017-10-14T03:04:32.602Z,80.30
2017-10-14T03:07:00.482Z,80.20
2017-10-14T03:09:28.025Z,80.30
2017-10-14T03:11:55.590Z,80.50
2017-10-14T03:14:23.442Z,80.40
2017-10-14T03:16:50.985Z,80.50
2017-10-14T03:19:19.328Z,80.60
2017-10-14T03:21:47.188Z,80.50
2017-10-14T03:24:14.756Z,80.90
2017-10-14T03:26:42.316Z,80.80
2017-10-14T03:29:10.262Z,81.00
2017-10-14T03:31:37.800Z,80.90
2017-10-14T03:34:05.378Z,80.80
2017-10-14T03:36:33.253Z,80.70
2017-10-14T03:39:00.795Z,80.80
2017-10-14T03:41:28.358Z,80.90
2017-10-14T03:43:55.969Z,80.80
2017-10-14T03:46:23.510Z,80.90
2017-10-14T03:48:51.069Z,80.70
2017-10-14T03:51:18.926Z,80.80
2017-10-14T03:53:46.490Z,80.90
2017-10-14T03:56:14.033Z,81.10
2017-10-14T03:58:42.014Z,81.50
2017-10-14T04:01:09.581Z,81.40
2017-10-14T04:03:37.152Z,81.50
2017-10-14T04:06:04.742Z,81.50
2017-10-14T04:08:32.296Z,81.50
2017-10-14T04:10:59.831Z,81.50
2017-10-14T04:13:27.433Z,81.50
2017-10-14T04:15:54.997Z,81.50
2017-10-14T04:18:22.589Z,81.50
2017-10-14T04:20:50.522Z,81.60
2017-10-14T04:23:18.086Z,81.60
2017-10-14T04:25:45.616Z,81.60
2017-10-14T04:28:13.221Z,81.70
2017-10-14T04:30:40.760Z,81.70
2017-10-14T04:33:08.294Z,81.70
2017-10-14T04:35:36.666Z,81.70
2017-10-14T04:38:04.204Z,81.60
2017-10-14T04:40:31.749Z,81.60
2017-10-14T04:42:59.384Z,81.60
2017-10-14T04:45:26.958Z,81.70
2017-10-14T04:47:54.506Z,81.70
2017-10-14T04:50:22.486Z,81.60
2017-10-14T04:52:50.051Z,81.60
2017-10-14T04:55:17.610Z,81.60
2017-10-14T04:57:45.469Z,81.50
2017-10-14T05:00:13.030Z,81.50
2017-10-14T05:02:40.590Z,81.40
2017-10-14T05:05:08.457Z,81.40
2017-10-14T05:07:36.007Z,81.40
2017-10-14T05:10:03.554Z,81.30
2017-10-14T05:12:31.170Z,81.30
2017-10-14T05:14:58.712Z,81.40
2017-10-14T05:17:26.261Z,81.50
2017-10-14T05:19:53.868Z,81.30
2017-10-14T05:22:22.177Z,81.70
2017-10-14T05:24:49.731Z,81.70
2017-10-14T05:27:17.297Z,81.80
2017-10-14T05:29:44.866Z,81.90
2017-10-14T05:32:12.450Z,82.00
2017-10-14T05:34:40.056Z,82.00
2017-10-14T05:37:07.602Z,82.00
2017-10-14T05:39:35.223Z,82.20
2017-10-14T05:42:03.258Z,82.20
2017-10-14T05:44:30.828Z,82.20
2017-10-14T05:46:58.393Z,82.30
2017-10-14T05:49:25.985Z,82.00
2017-10-14T05:51:53.535Z,81.90
2017-10-14T05:54:21.095Z,82.20
2017-10-14T05:56:48.706Z,82.30
2017-10-14T05:59:16.260Z,82.00
2017-10-14T06:01:43.809Z,82.10
2017-10-14T06:04:11.406Z,81.60
2017-10-14T06:06:38.966Z,82.10
2017-10-14T06:09:06.514Z,82.10
2017-10-14T06:11:34.151Z,82.10
2017-10-14T06:14:01.699Z,81.80
2017-10-14T06:16:30.024Z,81.70
2017-10-14T06:18:57.648Z,81.50
2017-10-14T06:21:25.195Z,81.90
2017-10-14T06:23:53.498Z,81.80
2017-10-14T06:26:21.114Z,81.80
2017-10-14T06:28:48.677Z,81.90
2017-10-14T06:31:16.274Z,81.90
2017-10-14T06:33:44.305Z,81.40
2017-10-14T06:36:11.864Z,81.40
2017-10-14T06:38:39.470Z,81.30
2017-10-14T06:41:07.058Z,81.30
2017-10-14T06:43:34.598Z,81.30
2017-10-14T06:46:02.134Z,81.10
2017-10-14T06:48:30.253Z,81.10
2017-10-14T06:50:57.812Z,81.10
2017-10-14T06:53:25.352Z,80.90
2017-10-14T06:55:52.953Z,81.00
2017-10-14T06:58:20.514Z,80.90
2017-10-14T07:00:48.086Z,80.80
2017-10-14T07:03:15.939Z,80.80
2017-10-14T07:05:43.492Z,80.80
2017-10-14T07:08:11.039Z,80.60
2017-10-14T07:10:38.643Z,80.50
2017-10-14T07:13:06.950Z,80.40
2017-10-14T07:15:34.492Z,80.20
2017-10-14T07:18:02.080Z,80.40
2017-10-14T07:20:29.616Z,80.30
2017-10-14T07:22:57.186Z,80.40
2017-10-14T07:25:24.781Z,80.40
2017-10-14T07:27:52.350Z,80.30
2017-10-14T07:30:19.964Z,80.30
2017-10-14T07:32:47.517Z,80.20
2017-10-14T07:35:15.079Z,80.00
2017-10-14T07:37:42.656Z,80.10
2017-10-14T07:40:10.193Z,80.00
2017-10-14T07:42:37.809Z,79.80
2017-10-14T07:45:05.400Z,79.50
2017-10-14T07:47:32.969Z,79.70
2017-10-14T07:50:00.567Z,79.30
2017-10-14T07:52:28.124Z,79.10
2017-10-14T07:54:55.760Z,78.80
2017-10-14T07:57:23.315Z,78.80
2017-10-14T07:59:50.875Z,78.80
2017-10-14T08:02:18.507Z,78.80
2017-10-14T08:04:46.826Z,78.90
2017-10-14T08:07:14.439Z,78.90
2017-10-14T08:09:42.002Z,79.00
2017-10-14T08:12:09.581Z,79.00
2017-10-14T08:14:37.217Z,78.80
2017-10-14T08:17:05.529Z,78.90
2017-10-14T08:19:33.129Z,78.60
2017-10-14T08:22:00.700Z,78.50
2017-10-14T08:24:28.266Z,78.20
2017-10-14T08:26:56.658Z,78.10
2017-10-14T08:29:24.222Z,78.00
2017-10-14T08:31:52.849Z,78.00
2017-10-14T08:34:20.409Z,77.90
2017-10-14T08:36:47.982Z,77.90
2017-10-14T08:39:15.577Z,78.00
2017-10-14T08:41:43.138Z,77.90
2017-10-14T08:44:11.533Z,77.90
2017-10-14T08:46:39.095Z,77.80
2017-10-14T08:49:06.664Z,77.80
2017-10-14T08:51:34.270Z,78.00
2017-10-14T08:54:01.846Z,78.20
2017-10-14T08:56:29.772Z,78.30
2017-10-14T08:58:57.338Z,78.10
2017-10-14T09:01:24.892Z,77.50
2017-10-14T09:03:52.501Z,77.10
2017-10-14T09:06:20.069Z,76.90
2017-10-14T09:08:47.772Z,76.30
2017-10-14T09:11:15.337Z,75.90
2017-10-14T09:13:42.901Z,76.00
2017-10-14T09:16:10.515Z,76.20
2017-10-14T09:18:38.084Z,75.30
2017-10-14T09:21:05.689Z,75.10
2017-10-14T09:23:33.303Z,74.70
2017-10-14T09:26:00.851Z,74.40
2017-10-14T09:28:29.233Z,74.10
2017-10-14T09:30:56.792Z,74.10
2017-10-14T09:33:25.166Z,73.50
2017-10-14T09:38:26.752Z,73.10
2017-10-14T09:40:54.323Z,73.10
2017-10-14T09:43:21.933Z,72.60
2017-10-14T09:45:49.594Z,72.60
2017-10-14T09:48:17.163Z,72.70
2017-10-14T09:50:44.754Z,72.40
2017-10-14T09:53:12.350Z,72.00
2017-10-14T09:55:39.930Z,72.10
2017-10-14T09:58:07.494Z,72.20
2017-10-14T10:00:35.078Z,72.00
2017-10-14T10:03:03.464Z,71.80
2017-10-14T10:05:31.027Z,71.70
2017-10-14T10:07:59.344Z,71.50
2017-10-14T10:10:26.969Z,71.40
2017-10-14T10:12:55.597Z,71.00
2017-10-14T10:15:23.318Z,71.00
2017-10-14T10:17:50.913Z,70.90
2017-10-14T10:20:18.477Z,70.80
2017-10-14T10:22:46.069Z,70.80
2017-10-14T10:25:13.631Z,70.60
2017-10-14T10:27:41.231Z,70.80
2017-10-14T10:30:08.790Z,70.70
2017-10-14T10:32:36.369Z,70.50
2017-10-14T10:35:03.946Z,70.40
2017-10-14T10:37:31.517Z,70.30
2017-10-14T10:42:32.893Z,70.10
2017-10-14T10:45:00.509Z,70.10
2017-10-14T10:47:28.063Z,70.10
2017-10-14T10:49:55.641Z,70.70
2017-10-14T10:52:23.223Z,70.00
2017-10-14T10:54:50.778Z,70.00
2017-10-14T10:57:18.389Z,70.10
2017-10-14T10:59:45.940Z,69.90
2017-10-14T11:02:13.485Z,70.30
2017-10-14T11:04:41.062Z,70.30
2017-10-14T11:07:08.623Z,70.50
2017-10-14T11:09:36.220Z,70.60
2017-10-14T11:12:03.761Z,70.70
2017-10-14T11:14:31.352Z,70.90
2017-10-14T11:16:58.964Z,70.90
2017-10-14T11:19:26.530Z,71.10
2017-10-14T11:21:54.159Z,71.10
2017-10-14T11:24:21.961Z,71.40
2017-10-14T11:26:49.517Z,71.50
2017-10-14T11:29:17.109Z,71.70
2017-10-14T11:31:44.675Z,71.90
2017-10-14T11:34:12.290Z,71.70
2017-10-14T11:36:39.849Z,72.20
2017-10-14T11:39:07.487Z,72.30
2017-10-14T11:41:36.354Z,72.50
2017-10-14T11:44:03.931Z,72.40
2017-10-14T11:46:31.877Z,72.30
2017-10-14T11:48:59.499Z,72.30
2017-10-14T11:51:27.049Z,72.30
2017-10-14T11:53:54.662Z,72.30
2017-10-14T11:56:22.230Z,72.60
2017-10-14T11:58:49.837Z,72.30
2017-10-14T12:01:17.401Z,72.40
2017-10-14T12:03:44.993Z,72.40
2017-10-14T12:06:12.598Z,72.40
2017-10-14T12:08:40.908Z,72.90
2017-10-14T12:11:08.529Z,72.90
2017-10-14T12:13:36.838Z,73.10
2017-10-14T12:16:04.455Z,73.10
2017-10-14T12:18:32.855Z,74.10
2017-10-14T12:21:00.411Z,73.50
2017-10-14T12:23:28.803Z,73.50
2017-10-14T12:25:56.394Z,73.50
2017-10-14T12:28:23.953Z,73.60
2017-10-14T12:30:51.563Z,73.80
2017-10-14T12:33:19.126Z,73.60
2017-10-14T12:35:47.493Z,73.70
2017-10-14T12:38:15.081Z,73.60
2017-10-14T12:40:42.638Z,73.90
2017-10-14T12:43:10.226Z,74.00
2017-10-14T12:45:37.793Z,74.00
2017-10-14T12:48:05.859Z,73.90
2017-10-14T12:50:33.410Z,73.80
2017-10-14T12:53:01.019Z,73.80
2017-10-14T12:55:29.402Z,73.60
2017-10-14T12:57:56.961Z,73.80
2017-10-14T13:00:25.338Z,73.80
2017-10-14T13:02:52.963Z,73.80
2017-10-14T13:05:20.521Z,73.90
2017-10-14T13:07:48.102Z,73.90
2017-10-14T13:10:15.831Z,73.90
2017-10-14T13:12:43.713Z,73.90
2017-10-14T13:15:12.042Z,74.10
2017-10-14T13:17:40.421Z,74.30
2017-10-14T13:20:08.009Z,74.30
2017-10-14T13:22:35.580Z,74.10
2017-10-14T13:25:03.188Z,74.20
2017-10-14T13:27:30.732Z,74.10
2017-10-14T13:29:58.323Z,74.10
2017-10-14T13:32:25.913Z,74.00
2017-10-14T13:34:53.515Z,73.80
2017-10-14T13:37:21.122Z,73.70
2017-10-14T13:39:48.677Z,73.80
2017-10-14T13:42:16.228Z,73.80
2017-10-14T13:44:43.864Z,73.80
2017-10-14T13:47:12.194Z,73.90
2017-10-14T13:49:39.793Z,73.90
2017-10-14T13:52:07.355Z,73.90
2017-10-14T13:54:34.920Z,73.90
2017-10-14T13:57:03.286Z,74.30
2017-10-14T13:59:30.818Z,73.90
2017-10-14T14:01:58.445Z,74.00
2017-10-14T14:04:25.972Z,74.00
2017-10-14T14:06:53.526Z,74.10
2017-10-14T14:09:21.114Z,74.10
2017-10-14T14:11:49.414Z,74.20
2017-10-14T14:14:17.009Z,74.20
2017-10-14T14:16:44.545Z,74.10
2017-10-14T14:19:12.119Z,74.10
2017-10-14T14:21:39.770Z,74.00
2017-10-14T14:24:07.317Z,74.10
2017-10-14T14:26:35.253Z,74.20
2017-10-14T14:29:02.812Z,74.30
2017-10-14T14:31:31.245Z,74.40
2017-10-14T14:33:58.846Z,74.40
2017-10-14T14:36:26.409Z,74.50
2017-10-14T14:38:54.044Z,74.60
2017-10-14T14:41:21.592Z,74.60
2017-10-14T14:43:49.147Z,74.80
2017-10-14T14:46:16.753Z,74.90
2017-10-14T14:48:44.306Z,75.00
2017-10-14T14:51:12.968Z,74.90
2017-10-14T14:53:40.558Z,74.90
2017-10-14T14:56:08.089Z,75.00
2017-10-14T14:58:35.715Z,74.90
2017-10-14T15:01:03.282Z,75.00
2017-10-14T15:03:30.887Z,74.90
2017-10-14T15:05:59.206Z,75.20
2017-10-14T15:08:26.768Z,75.10
2017-10-14T15:10:54.352Z,75.10
2017-10-14T15:13:21.902Z,75.20
2017-10-14T15:15:49.546Z,75.10
2017-10-14T15:18:17.101Z,75.20
2017-10-14T15:20:44.639Z,75.00
2017-10-14T15:23:12.232Z,75.20
2017-10-14T15:25:39.770Z,75.20
2017-10-14T15:28:07.363Z,75.30
2017-10-14T15:30:34.926Z,75.40
2017-10-14T15:33:03.287Z,75.70
2017-10-14T15:35:30.892Z,75.70
2017-10-14T15:37:59.212Z,76.20
2017-10-14T15:40:26.802Z,76.20
2017-10-14T15:42:54.370Z,76.20
2017-10-14T15:45:22.033Z,76.20
2017-10-14T15:47:49.642Z,76.10
2017-10-14T15:50:17.229Z,76.10
2017-10-14T15:52:44.832Z,76.10
2017-10-14T15:55:12.394Z,76.10
2017-10-14T15:57:40.714Z,76.10
2017-10-14T16:00:08.313Z,76.00
2017-10-14T16:02:35.878Z,76.00
2017-10-14T16:05:03.465Z,76.00
2017-10-14T16:07:31.793Z,76.00
2017-10-14T16:09:59.330Z,76.00
2017-10-14T16:12:26.914Z,76.00
2017-10-14T16:14:54.455Z,76.10
2017-10-14T16:17:22.306Z,76.50
2017-10-14T16:19:49.843Z,76.80
2017-10-14T16:22:18.167Z,76.90
2017-10-14T16:24:45.829Z,76.90
2017-10-14T16:27:13.376Z,76.90
2017-10-14T16:29:41.021Z,76.90
2017-10-14T16:32:08.565Z,77.00
2017-10-14T16:34:36.874Z,77.30
2017-10-14T16:37:04.470Z,77.30
2017-10-14T16:39:32.081Z,77.50
2017-10-14T16:41:59.718Z,77.60
2017-10-14T16:44:27.285Z,77.60
2017-10-14T16:46:54.853Z,77.70
2017-10-14T16:49:22.523Z,77.90
2017-10-14T16:51:50.078Z,78.00
2017-10-14T16:54:18.097Z,78.00
2017-10-14T16:56:45.679Z,78.10
2017-10-14T16:59:13.243Z,78.30
2017-10-14T17:01:41.614Z,78.30
2017-10-14T17:04:09.178Z,78.30
2017-10-14T17:06:36.783Z,78.30
2017-10-14T17:09:04.332Z,78.40
2017-10-14T17:11:31.880Z,78.40
2017-10-14T17:13:59.481Z,78.70
2017-10-14T17:16:27.047Z,78.70
2017-10-14T17:18:54.646Z,78.70
2017-10-14T17:21:22.198Z,78.80
2017-10-14T17:23:50.534Z,78.90
2017-10-14T17:26:18.134Z,78.80
2017-10-14T17:28:46.453Z,79.10
2017-10-14T17:31:14.311Z,79.00
2017-10-14T17:33:41.903Z,79.00
2017-10-14T17:36:09.490Z,79.20
2017-10-14T17:38:37.098Z,79.40
2017-10-14T17:41:04.658Z,79.40
2017-10-14T17:43:32.314Z,79.40
2017-10-14T17:45:59.869Z,79.40
2017-10-14T17:48:27.432Z,79.30
2017-10-14T17:50:55.017Z,79.30
2017-10-14T17:53:22.596Z,79.30
2017-10-14T17:55:50.649Z,79.20
2017-10-14T17:58:18.210Z,79.20
2017-10-14T18:00:45.778Z,79.20
2017-10-14T18:03:13.454Z,79.20
2017-10-14T18:05:41.005Z,79.60
2017-10-14T18:08:08.598Z,79.60
2017-10-14T18:10:36.914Z,80.00
2017-10-14T18:13:04.471Z,79.90
2017-10-14T18:15:32.099Z,80.10
2017-10-14T18:17:59.659Z,80.10
2017-10-14T18:20:28.034Z,80.40
2017-10-14T18:22:56.367Z,80.30
2017-10-14T18:25:23.930Z,80.30
2017-10-14T18:27:51.525Z,80.90
2017-10-14T18:30:19.914Z,80.50
2017-10-14T18:32:48.282Z,80.50
2017-10-14T18:35:16.611Z,80.60
2017-10-14T18:37:44.170Z,80.60
2017-10-14T18:40:12.684Z,80.60
2017-10-14T18:42:40.265Z,80.70
2017-10-14T18:45:07.902Z,80.90
2017-10-14T18:47:35.475Z,80.90
2017-10-14T18:50:03.858Z,81.00
2017-10-14T18:52:31.469Z,80.90
2017-10-14T18:54:59.041Z,81.00
2017-10-14T18:57:26.917Z,81.10
2017-10-14T18:59:55.265Z,81.30
2017-10-14T19:02:22.825Z,81.20
2017-10-14T19:04:50.449Z,81.30
2017-10-14T19:07:18.006Z,81.40
2017-10-14T19:09:46.370Z,81.60
2017-10-14T19:12:13.927Z,81.60
2017-10-14T19:14:41.506Z,81.60
2017-10-14T19:17:09.113Z,81.60
2017-10-14T19:19:36.664Z,81.60
2017-10-14T19:22:04.571Z,81.60
2017-10-14T19:24:32.135Z,81.80
2017-10-14T19:26:59.697Z,81.90
2017-10-14T19:29:27.431Z,82.00
2017-10-14T19:31:55.010Z,82.20
2017-10-14T19:34:22.617Z,82.20
2017-10-14T19:36:50.242Z,82.20
2017-10-14T19:39:17.817Z,82.00
2017-10-14T19:41:46.201Z,82.00
2017-10-14T19:44:13.767Z,82.00
2017-10-14T19:46:41.491Z,82.30
2017-10-14T19:49:09.055Z,82.70
2017-10-14T19:51:36.590Z,82.80
2017-10-14T19:54:04.176Z,82.70
2017-10-14T19:56:31.747Z,82.70
2017-10-14T19:58:59.682Z,82.70
2017-10-14T20:01:27.244Z,82.70
2017-10-14T20:03:54.814Z,82.70
2017-10-14T20:06:22.430Z,82.70
2017-10-14T20:08:49.996Z,82.70
2017-10-14T20:11:17.593Z,82.60
2017-10-14T20:13:45.166Z,82.70
2017-10-14T20:16:12.732Z,82.70
2017-10-14T20:18:41.133Z,83.10
2017-10-14T20:21:08.710Z,82.60
2017-10-14T20:23:36.350Z,82.60
2017-10-14T20:26:03.930Z,82.80
2017-10-14T20:28:31.511Z,82.90
2017-10-14T20:30:59.130Z,82.90
2017-10-14T20:33:26.716Z,83.20
2017-10-14T20:35:54.310Z,83.10
2017-10-14T20:38:21.854Z,83.20
2017-10-14T20:40:49.396Z,83.20
2017-10-14T20:43:16.998Z,83.10
2017-10-14T20:45:44.630Z,83.20
2017-10-14T20:48:12.226Z,83.30
2017-10-14T20:50:39.785Z,83.20
2017-10-14T20:53:07.373Z,83.30
2017-10-14T20:55:35.041Z,83.30
2017-10-14T20:58:02.640Z,83.40
2017-10-14T21:00:30.609Z,83.50
2017-10-14T21:02:58.167Z,83.70
2017-10-14T21:05:25.791Z,83.70
2017-10-14T21:07:53.414Z,83.90
2017-10-14T21:10:20.969Z,83.80
2017-10-14T21:12:48.570Z,83.90
2017-10-14T21:15:16.115Z,83.90
2017-10-14T21:17:43.661Z,83.90
2017-10-14T21:20:11.388Z,83.90
2017-10-14T21:22:38.930Z,83.90
2017-10-14T21:25:06.541Z,83.90
2017-10-14T21:27:34.090Z,83.80
2017-10-14T21:30:01.645Z,83.80
2017-10-14T21:32:29.267Z,83.80
2017-10-14T21:34:56.816Z,83.90
2017-10-14T21:37:24.409Z,83.90
2017-10-14T21:39:51.972Z,83.80
2017-10-14T21:42:19.550Z,83.90
2017-10-14T21:44:47.155Z,84.00
2017-10-14T21:47:14.746Z,83.90
2017-10-14T21:49:42.361Z,84.10
2017-10-14T21:52:09.906Z,84.10
2017-10-14T21:54:38.240Z,84.10
2017-10-14T21:57:05.898Z,84.10
2017-10-14T21:59:33.518Z,84.20
2017-10-14T22:02:01.920Z,83.90
2017-10-14T22:04:29.473Z,83.80
2017-10-14T22:06:57.039Z,84.10
2017-10-14T22:09:24.739Z,84.20
2017-10-14T22:11:52.306Z,84.20
2017-10-14T22:14:19.917Z,84.50
2017-10-14T22:16:47.479Z,85.10
2017-10-14T22:19:15.053Z,84.50
2017-10-14T22:21:42.701Z,84.40
2017-10-14T22:24:10.245Z,84.50
2017-10-14T22:26:37.835Z,84.50
2017-10-14T22:29:05.454Z,84.50
2017-10-14T22:31:33.787Z,84.80
2017-10-14T22:34:01.407Z,84.70
2017-10-14T22:36:29.272Z,84.90
2017-10-14T22:38:56.920Z,84.90
2017-10-14T22:41:25.230Z,84.90
2017-10-14T22:43:52.878Z,84.80
2017-10-14T22:46:20.466Z,84.60
2017-10-14T22:48:48.030Z,84.50
2017-10-14T22:51:15.631Z,84.70
2017-10-14T22:53:43.958Z,84.80
2017-10-14T22:56:11.546Z,84.70
2017-10-14T22:58:39.154Z,85.00
2017-10-14T23:01:06.701Z,85.10
2017-10-14T23:03:34.299Z,85.10
2017-10-14T23:06:01.873Z,85.10
2017-10-14T23:08:29.451Z,85.00
2017-10-14T23:10:57.913Z,85.10
2017-10-14T23:13:26.261Z,85.20
2017-10-14T23:15:53.841Z,85.20
2017-10-14T23:18:21.393Z,85.10
2017-10-14T23:20:48.963Z,85.00
2017-10-14T23:23:16.567Z,85.00
2017-10-14T23:25:44.155Z,85.10
2017-10-14T23:28:12.142Z,85.00
2017-10-14T23:30:39.712Z,85.10
2017-10-14T23:33:07.290Z,84.90
2017-10-14T23:35:35.837Z,84.80
2017-10-14T23:38:03.409Z,84.80
2017-10-14T23:40:31.038Z,84.90
2017-10-14T23:42:58.600Z,85.00
2017-10-14T23:45:26.161Z,84.90
2017-10-14T23:47:53.745Z,84.90
2017-10-14T23:50:21.298Z,84.90
2017-10-14T23:52:48.906Z,84.90
2017-10-14T23:55:16.446Z,84.80
2017-10-14T23:57:44.766Z,85.00
